Cumberland, RI (02864)

4:00 PM EDT on August 27, 2015 (GMT -0400)
Woonsocket Oak Grove | | Change Station
CLOSE
Current Station
Personal Weather Station
Location: Cumberland, RI
Elevation: 223 ft
Nearby Weather Stations

Elev 223 ft 41.98 °N, 71.48 °W | Updated 9 minutes ago

Partly Cloudy
Partly Cloudy
79.6 °F
Feels Like 81 °F
N
6.0
Wind Variable Wind from WNW
Gusts 12.0 mph

Today
High -- | Low -- °F
--% Chance of Precip.
Yesterday
High -- | Low -- °F
Precip. -- in
6:05 AM 7:27 PM
Waxing Gibbous, 94% visible
Pressure 30.00 in
Visibility 10.0 miles
Clouds Few 4800 ft
Scattered Clouds 6000 ft
Heat Index 81 °F
Dew Point 62 °F
Humidity 56%
Rainfall 0.00 in
Snow Depth Not available.
UV 4 out of 12
Pollen 10.00 out of 12
Air Quality Not available.
Flu Activity Not available.
METAR KSFZ 271955Z AUTO 30011KT 10SM FEW048 SCT060 24/14 A3000 RMK AO1
Pressure 30.00 in
Visibility 10.0 miles
Clouds Few 4800 ft
Scattered Clouds 6000 ft
Heat Index 81 °F
Dew Point 62 °F
Humidity 56%
Rainfall 0.00 in
Snow Depth Not available.
UV 4 out of 12
Pollen 10.00 out of 12
Air Quality Not available.
Flu Activity Not available.
METAR KSFZ 271955Z AUTO 30011KT 10SM FEW048 SCT060 24/14 A3000 RMK AO1

10-Day Weather Forecast

×

Almanac

Astronomy

Aug. 27, 2015 Rise Set
Actual Time
Civil Twilight
Nautical Twilight
Astronomical Twilight
Moon
Length of Visible Light
Length of Day
Tomorrow will be .
, % of the Moon is Illuminated

Today's Extremes

State Highs State Lows

Community

WunderPhotos

Upload Photos

1,850,200 photos uploaded!

WunderBlogs® & News

Nearby

Air Quality

  Air Quality AQ Index Pollutant
Not available.

Snow Depth

Station Depth Elevation

Earthquake Activity

City Distance Mag. Time & Date
Minimum magnitude displayed is 2.5.

Coastal Water Temperatures

Place Temperature

Stations

Nearby Weather Stations

Station Location Temp. Windchill Dew Point Humidity Wind Precip. Elev Updated Type